sensor_id;sensor_type;location;lat;lon;timestamp;pressure;altitude;pressure_sealevel;temperature;humidity
11712;BME280;5912;51.034;6.984;2023-04-26T00:00:12;56634.78;;;-142.13;65.41
11712;BME280;5912;51.034;6.984;2023-04-26T00:02:38;56632.78;;;-142.13;64.95
11712;BME280;5912;51.034;6.984;2023-04-26T00:05:34;56652.81;;;-142.13;65.43
11712;BME280;5912;51.034;6.984;2023-04-26T00:08:01;56652.81;;;-142.13;65.34
11712;BME280;5912;51.034;6.984;2023-04-26T00:10:28;56670.84;;;-142.13;65.75
11712;BME280;5912;51.034;6.984;2023-04-26T00:12:53;56680.84;;;-142.13;65.64
11712;BME280;5912;51.034;6.984;2023-04-26T00:15:19;56654.81;;;-142.13;65.77
11712;BME280;5912;51.034;6.984;2023-04-26T00:17:44;56656.81;;;-142.13;66.21
11712;BME280;5912;51.034;6.984;2023-04-26T00:20:10;56644.81;;;-142.13;65.82
11712;BME280;5912;51.034;6.984;2023-04-26T00:22:37;56638.78;;;-142.13;66.06
11712;BME280;5912;51.034;6.984;2023-04-26T00:25:02;56632.78;;;-142.13;66.16
11712;BME280;5912;51.034;6.984;2023-04-26T00:27:28;56654.81;;;-142.13;66.76
11712;BME280;5912;51.034;6.984;2023-04-26T00:29:53;56636.78;;;-142.13;66.13
11712;BME280;5912;51.034;6.984;2023-04-26T00:32:18;56660.81;;;-142.13;66.65
11712;BME280;5912;51.034;6.984;2023-04-26T00:34:44;56648.81;;;-142.13;66.90
11712;BME280;5912;51.034;6.984;2023-04-26T00:37:09;56654.81;;;-142.13;66.80
11712;BME280;5912;51.034;6.984;2023-04-26T00:39:34;56668.84;;;-142.13;66.71
11712;BME280;5912;51.034;6.984;2023-04-26T00:42:00;56636.78;;;-142.13;66.97
11712;BME280;5912;51.034;6.984;2023-04-26T00:44:25;56654.81;;;-142.13;67.11
11712;BME280;5912;51.034;6.984;2023-04-26T00:46:52;56672.84;;;-142.13;67.44
11712;BME280;5912;51.034;6.984;2023-04-26T00:49:20;56656.81;;;-142.13;67.72
11712;BME280;5912;51.034;6.984;2023-04-26T00:51:47;56672.84;;;-142.13;67.48
11712;BME280;5912;51.034;6.984;2023-04-26T00:54:13;56658.81;;;-142.13;67.55
11712;BME280;5912;51.034;6.984;2023-04-26T00:56:40;56648.81;;;-142.13;67.88
11712;BME280;5912;51.034;6.984;2023-04-26T00:59:06;56668.84;;;-142.13;68.15
11712;BME280;5912;51.034;6.984;2023-04-26T01:01:31;56642.78;;;-142.13;68.12
11712;BME280;5912;51.034;6.984;2023-04-26T01:03:57;56660.81;;;-142.13;68.02
11712;BME280;5912;51.034;6.984;2023-04-26T01:06:22;56652.81;;;-142.13;68.34
11712;BME280;5912;51.034;6.984;2023-04-26T01:08:50;56644.81;;;-142.13;68.21
11712;BME280;5912;51.034;6.984;2023-04-26T01:11:19;56650.81;;;-142.13;68.59
11712;BME280;5912;51.034;6.984;2023-04-26T01:13:46;56636.78;;;-142.13;68.51
11712;BME280;5912;51.034;6.984;2023-04-26T01:16:12;56672.84;;;-142.13;68.95
11712;BME280;5912;51.034;6.984;2023-04-26T01:18:38;56638.78;;;-142.13;69.36
11712;BME280;5912;51.034;6.984;2023-04-26T01:21:03;56640.78;;;-142.13;68.96
11712;BME280;5912;51.034;6.984;2023-04-26T01:23:29;56652.81;;;-142.13;68.67
11712;BME280;5912;51.034;6.984;2023-04-26T01:25:54;56640.78;;;-142.13;69.08
11712;BME280;5912;51.034;6.984;2023-04-26T01:28:20;56646.81;;;-142.13;69.09
11712;BME280;5912;51.034;6.984;2023-04-26T01:30:46;56676.84;;;-142.13;69.28
11712;BME280;5912;51.034;6.984;2023-04-26T01:33:11;56652.81;;;-142.13;69.23
11712;BME280;5912;51.034;6.984;2023-04-26T01:35:36;56654.81;;;-142.13;69.17
11712;BME280;5912;51.034;6.984;2023-04-26T01:38:02;56666.84;;;-142.13;69.25
11712;BME280;5912;51.034;6.984;2023-04-26T01:40:28;56680.84;;;-142.13;69.17
11712;BME280;5912;51.034;6.984;2023-04-26T01:42:53;56674.84;;;-142.13;69.64
11712;BME280;5912;51.034;6.984;2023-04-26T01:45:20;56670.84;;;-142.13;69.74
11712;BME280;5912;51.034;6.984;2023-04-26T01:47:45;56676.84;;;-142.13;69.81
11712;BME280;5912;51.034;6.984;2023-04-26T01:50:10;56648.81;;;-142.13;69.94
11712;BME280;5912;51.034;6.984;2023-04-26T01:52:36;56646.81;;;-142.13;69.79
11712;BME280;5912;51.034;6.984;2023-04-26T01:55:01;56678.84;;;-142.13;69.90
11712;BME280;5912;51.034;6.984;2023-04-26T01:57:26;56678.84;;;-142.13;70.04
11712;BME280;5912;51.034;6.984;2023-04-26T01:59:51;56678.84;;;-142.13;69.76
11712;BME280;5912;51.034;6.984;2023-04-26T02:02:18;56664.84;;;-142.13;70.06
11712;BME280;5912;51.034;6.984;2023-04-26T02:04:43;56680.84;;;-142.13;70.20
11712;BME280;5912;51.034;6.984;2023-04-26T02:07:08;56660.81;;;-142.13;70.02
11712;BME280;5912;51.034;6.984;2023-04-26T02:09:34;56672.84;;;-142.13;70.09
11712;BME280;5912;51.034;6.984;2023-04-26T02:11:59;56662.81;;;-142.13;70.08
11712;BME280;5912;51.034;6.984;2023-04-26T02:14:24;56680.84;;;-142.13;69.97
11712;BME280;5912;51.034;6.984;2023-04-26T02:16:50;56684.88;;;-142.13;70.55
11712;BME280;5912;51.034;6.984;2023-04-26T02:19:15;56664.84;;;-142.13;70.27
11712;BME280;5912;51.034;6.984;2023-04-26T02:21:55;56670.84;;;-142.13;70.39
11712;BME280;5912;51.034;6.984;2023-04-26T02:24:22;56660.81;;;-142.13;70.15
11712;BME280;5912;51.034;6.984;2023-04-26T02:26:48;56662.81;;;-142.13;70.51
11712;BME280;5912;51.034;6.984;2023-04-26T02:29:13;56660.81;;;-142.13;70.30
11712;BME280;5912;51.034;6.984;2023-04-26T02:31:39;56660.81;;;-142.13;70.51
11712;BME280;5912;51.034;6.984;2023-04-26T02:34:04;56686.88;;;-142.13;70.43
11712;BME280;5912;51.034;6.984;2023-04-26T02:36:30;56688.88;;;-142.13;70.32
11712;BME280;5912;51.034;6.984;2023-04-26T02:38:57;56696.88;;;-142.13;70.13
11712;BME280;5912;51.034;6.984;2023-04-26T02:41:22;56664.84;;;-142.13;70.31
11712;BME280;5912;51.034;6.984;2023-04-26T02:43:49;56698.88;;;-142.13;70.18
11712;BME280;5912;51.034;6.984;2023-04-26T02:46:14;56678.84;;;-142.13;70.15
11712;BME280;5912;51.034;6.984;2023-04-26T02:48:39;56656.81;;;-142.13;70.14
11712;BME280;5912;51.034;6.984;2023-04-26T02:51:05;56642.78;;;-142.13;70.12
11712;BME280;5912;51.034;6.984;2023-04-26T02:53:30;56662.81;;;-142.13;69.64
11712;BME280;5912;51.034;6.984;2023-04-26T02:55:55;56684.88;;;-142.13;69.85
11712;BME280;5912;51.034;6.984;2023-04-26T02:58:21;56672.84;;;-142.13;69.78
11712;BME280;5912;51.034;6.984;2023-04-26T03:00:46;56658.81;;;-142.13;69.76
11712;BME280;5912;51.034;6.984;2023-04-26T03:03:12;56682.88;;;-142.13;70.19
11712;BME280;5912;51.034;6.984;2023-04-26T03:05:38;56670.84;;;-142.13;69.84
11712;BME280;5912;51.034;6.984;2023-04-26T03:08:03;56702.91;;;-142.13;70.55
11712;BME280;5912;51.034;6.984;2023-04-26T03:10:28;56656.81;;;-142.13;71.07
11712;BME280;5912;51.034;6.984;2023-04-26T03:12:54;56670.84;;;-142.13;70.32
11712;BME280;5912;51.034;6.984;2023-04-26T03:15:19;56668.84;;;-142.13;70.39
11712;BME280;5912;51.034;6.984;2023-04-26T03:17:44;56704.91;;;-142.13;70.30
11712;BME280;5912;51.034;6.984;2023-04-26T03:20:10;56656.81;;;-142.13;70.44
11712;BME280;5912;51.034;6.984;2023-04-26T03:22:35;56680.84;;;-142.13;70.79
11712;BME280;5912;51.034;6.984;2023-04-26T03:25:01;56656.81;;;-142.13;70.58
11712;BME280;5912;51.034;6.984;2023-04-26T03:27:28;56698.88;;;-142.13;70.39
11712;BME280;5912;51.034;6.984;2023-04-26T03:29:53;56676.84;;;-142.13;70.51
11712;BME280;5912;51.034;6.984;2023-04-26T03:32:18;56700.91;;;-142.13;70.12
11712;BME280;5912;51.034;6.984;2023-04-26T03:34:43;56720.94;;;-142.13;70.53
11712;BME280;5912;51.034;6.984;2023-04-26T03:37:09;56688.88;;;-142.13;69.89
11712;BME280;5912;51.034;6.984;2023-04-26T03:39:34;56672.84;;;-142.13;70.41
11712;BME280;5912;51.034;6.984;2023-04-26T03:42:00;56694.88;;;-142.13;70.68
11712;BME280;5912;51.034;6.984;2023-04-26T03:44:25;56704.91;;;-142.13;70.60
11712;BME280;5912;51.034;6.984;2023-04-26T03:46:51;56658.81;;;-142.13;70.11
11712;BME280;5912;51.034;6.984;2023-04-26T03:49:16;56702.91;;;-142.13;70.55
11712;BME280;5912;51.034;6.984;2023-04-26T03:51:41;56676.84;;;-142.13;70.17
11712;BME280;5912;51.034;6.984;2023-04-26T03:54:07;56690.88;;;-142.13;70.48
11712;BME280;5912;51.034;6.984;2023-04-26T03:56:32;56698.88;;;-142.13;70.44
11712;BME280;5912;51.034;6.984;2023-04-26T03:58:57;56648.81;;;-142.13;70.58
11712;BME280;5912;51.034;6.984;2023-04-26T04:01:23;56686.88;;;-142.13;70.90
11712;BME280;5912;51.034;6.984;2023-04-26T04:03:48;56674.84;;;-142.13;70.75
11712;BME280;5912;51.034;6.984;2023-04-26T04:06:14;56684.88;;;-142.13;70.67
11712;BME280;5912;51.034;6.984;2023-04-26T04:08:40;56664.84;;;-142.13;70.32
11712;BME280;5912;51.034;6.984;2023-04-26T04:11:06;56680.84;;;-142.13;70.58
11712;BME280;5912;51.034;6.984;2023-04-26T04:13:31;56680.84;;;-142.13;70.48
11712;BME280;5912;51.034;6.984;2023-04-26T04:15:56;56704.91;;;-142.13;70.09
11712;BME280;5912;51.034;6.984;2023-04-26T04:18:21;56680.84;;;-142.13;70.59
11712;BME280;5912;51.034;6.984;2023-04-26T04:20:47;56658.81;;;-142.13;70.86
11712;BME280;5912;51.034;6.984;2023-04-26T04:23:12;56690.88;;;-142.13;71.03
11712;BME280;5912;51.034;6.984;2023-04-26T04:25:37;56700.91;;;-142.13;70.33
11712;BME280;5912;51.034;6.984;2023-04-26T04:28:04;56706.91;;;-142.13;70.73
11712;BME280;5912;51.034;6.984;2023-04-26T04:30:30;56700.91;;;-142.13;70.44
11712;BME280;5912;51.034;6.984;2023-04-26T04:32:56;56652.81;;;-142.13;70.70
11712;BME280;5912;51.034;6.984;2023-04-26T04:35:24;56668.84;;;-142.13;70.51
11712;BME280;5912;51.034;6.984;2023-04-26T04:37:56;56676.84;;;-142.13;70.10
11712;BME280;5912;51.034;6.984;2023-04-26T04:40:23;56680.84;;;-142.13;70.11
11712;BME280;5912;51.034;6.984;2023-04-26T04:42:48;56666.84;;;-142.13;70.15
11712;BME280;5912;51.034;6.984;2023-04-26T04:45:14;56662.81;;;-142.13;70.08
11712;BME280;5912;51.034;6.984;2023-04-26T04:47:39;56686.88;;;-142.13;70.21
11712;BME280;5912;51.034;6.984;2023-04-26T04:50:05;56704.91;;;-142.13;70.02
11712;BME280;5912;51.034;6.984;2023-04-26T04:52:31;56666.84;;;-142.13;69.92
11712;BME280;5912;51.034;6.984;2023-04-26T04:54:57;56674.84;;;-142.13;70.35
11712;BME280;5912;51.034;6.984;2023-04-26T04:57:23;56678.84;;;-142.13;69.93
11712;BME280;5912;51.034;6.984;2023-04-26T04:59:48;56648.81;;;-142.13;69.52
11712;BME280;5912;51.034;6.984;2023-04-26T05:02:13;56676.84;;;-142.13;69.86
11712;BME280;5912;51.034;6.984;2023-04-26T05:04:39;56696.88;;;-142.13;69.94
11712;BME280;5912;51.034;6.984;2023-04-26T05:07:04;56660.81;;;-142.13;69.69
11712;BME280;5912;51.034;6.984;2023-04-26T05:09:30;56682.88;;;-142.13;69.95
11712;BME280;5912;51.034;6.984;2023-04-26T05:11:56;56678.84;;;-142.13;69.83
11712;BME280;5912;51.034;6.984;2023-04-26T05:14:21;56660.81;;;-142.13;69.71
11712;BME280;5912;51.034;6.984;2023-04-26T05:16:47;56640.78;;;-142.13;69.48
11712;BME280;5912;51.034;6.984;2023-04-26T05:19:12;56652.81;;;-142.13;69.15
11712;BME280;5912;51.034;6.984;2023-04-26T05:21:38;56638.78;;;-142.13;69.38
11712;BME280;5912;51.034;6.984;2023-04-26T05:24:03;56676.84;;;-142.13;68.84
11712;BME280;5912;51.034;6.984;2023-04-26T05:26:28;56624.75;;;-142.13;69.19
11712;BME280;5912;51.034;6.984;2023-04-26T05:28:54;56654.81;;;-142.13;68.77
11712;BME280;5912;51.034;6.984;2023-04-26T05:31:20;56664.84;;;-142.13;68.26
11712;BME280;5912;51.034;6.984;2023-04-26T05:33:45;56650.81;;;-142.13;67.93
11712;BME280;5912;51.034;6.984;2023-04-26T05:36:11;56632.78;;;-142.13;67.71
11712;BME280;5912;51.034;6.984;2023-04-26T05:38:36;56636.78;;;-142.13;67.45
11712;BME280;5912;51.034;6.984;2023-04-26T05:41:02;56624.75;;;-142.13;67.48
11712;BME280;5912;51.034;6.984;2023-04-26T05:43:28;56616.75;;;-142.13;66.99
11712;BME280;5912;51.034;6.984;2023-04-26T05:45:54;56640.78;;;-142.13;66.45
11712;BME280;5912;51.034;6.984;2023-04-26T05:48:21;56634.78;;;-142.13;66.69
11712;BME280;5912;51.034;6.984;2023-04-26T05:50:47;56632.78;;;-142.13;65.82
11712;BME280;5912;51.034;6.984;2023-04-26T05:53:13;56600.72;;;-142.13;65.63
11712;BME280;5912;51.034;6.984;2023-04-26T05:55:40;56630.78;;;-142.13;65.60
11712;BME280;5912;51.034;6.984;2023-04-26T05:58:05;56608.75;;;-142.13;65.98
11712;BME280;5912;51.034;6.984;2023-04-26T06:00:30;56654.81;;;-142.13;65.52
11712;BME280;5912;51.034;6.984;2023-04-26T06:02:56;56624.75;;;-142.13;65.20
11712;BME280;5912;51.034;6.984;2023-04-26T06:05:22;56604.72;;;-142.13;64.83
11712;BME280;5912;51.034;6.984;2023-04-26T06:07:47;56628.78;;;-142.13;65.30
11712;BME280;5912;51.034;6.984;2023-04-26T06:10:12;56596.72;;;-142.13;64.99
11712;BME280;5912;51.034;6.984;2023-04-26T06:12:38;56596.72;;;-142.13;63.64
11712;BME280;5912;51.034;6.984;2023-04-26T06:15:04;56576.69;;;-142.13;63.80
11712;BME280;5912;51.034;6.984;2023-04-26T06:17:29;56580.69;;;-142.13;63.36
11712;BME280;5912;51.034;6.984;2023-04-26T06:19:54;56600.72;;;-142.13;63.02
11712;BME280;5912;51.034;6.984;2023-04-26T06:22:20;56572.69;;;-142.13;61.86
11712;BME280;5912;51.034;6.984;2023-04-26T06:24:45;56568.66;;;-142.13;61.36
11712;BME280;5912;51.034;6.984;2023-04-26T06:27:10;56570.69;;;-142.13;60.87
11712;BME280;5912;51.034;6.984;2023-04-26T06:30:07;56578.69;;;-142.13;60.61
11712;BME280;5912;51.034;6.984;2023-04-26T06:32:32;56530.59;;;-142.13;60.46
11712;BME280;5912;51.034;6.984;2023-04-26T06:34:58;56564.66;;;-142.13;60.28
11712;BME280;5912;51.034;6.984;2023-04-26T06:37:23;56548.63;;;-142.13;59.46
11712;BME280;5912;51.034;6.984;2023-04-26T06:39:48;56518.59;;;-142.13;58.50
11712;BME280;5912;51.034;6.984;2023-04-26T06:42:14;56540.63;;;-142.13;57.53
11712;BME280;5912;51.034;6.984;2023-04-26T06:44:39;56516.59;;;-142.13;55.98
11712;BME280;5912;51.034;6.984;2023-04-26T06:47:04;56488.53;;;-142.13;54.17
11712;BME280;5912;51.034;6.984;2023-04-26T06:49:34;56462.50;;;-142.13;52.57
11712;BME280;5912;51.034;6.984;2023-04-26T06:51:59;56472.50;;;-142.13;51.02
11712;BME280;5912;51.034;6.984;2023-04-26T06:54:29;56450.47;;;-142.13;48.88
11712;BME280;5912;51.034;6.984;2023-04-26T06:56:54;56420.44;;;-142.13;47.40
11712;BME280;5912;51.034;6.984;2023-04-26T06:59:20;56402.41;;;-142.13;45.93
11712;BME280;5912;51.034;6.984;2023-04-26T07:01:45;56378.38;;;-142.13;44.09
11712;BME280;5912;51.034;6.984;2023-04-26T07:04:11;56358.34;;;-142.13;42.93
11712;BME280;5912;51.034;6.984;2023-04-26T07:06:37;56356.31;;;-142.13;42.14
11712;BME280;5912;51.034;6.984;2023-04-26T07:09:03;56344.31;;;-142.13;41.83
11712;BME280;5912;51.034;6.984;2023-04-26T07:11:29;56390.38;;;-142.13;40.99
11712;BME280;5912;51.034;6.984;2023-04-26T07:13:55;56350.31;;;-142.13;40.35
11712;BME280;5912;51.034;6.984;2023-04-26T07:16:21;56312.25;;;-142.13;39.35
11712;BME280;5912;51.034;6.984;2023-04-26T07:18:46;56346.31;;;-142.13;39.49
11712;BME280;5912;51.034;6.984;2023-04-26T07:21:12;56328.28;;;-142.13;38.77
11712;BME280;5912;51.034;6.984;2023-04-26T07:23:38;56314.25;;;-142.13;38.37
11712;BME280;5912;51.034;6.984;2023-04-26T07:26:03;56320.28;;;-142.13;38.93
11712;BME280;5912;51.034;6.984;2023-04-26T07:28:32;56350.31;;;-142.13;38.87
11712;BME280;5912;51.034;6.984;2023-04-26T07:30:58;56338.31;;;-142.13;38.64
11712;BME280;5912;51.034;6.984;2023-04-26T07:33:24;56350.31;;;-142.13;38.71
11712;BME280;5912;51.034;6.984;2023-04-26T07:35:58;56306.25;;;-142.13;38.42
11712;BME280;5912;51.034;6.984;2023-04-26T07:38:24;56520.59;;;-142.13;36.99
11712;BME280;5912;51.034;6.984;2023-04-26T07:40:50;56338.31;;;-142.13;36.64
11712;BME280;5912;51.034;6.984;2023-04-26T07:43:16;56266.19;;;-142.13;36.56
11712;BME280;5912;51.034;6.984;2023-04-26T07:45:41;56296.22;;;-142.13;36.03
11712;BME280;5912;51.034;6.984;2023-04-26T07:48:06;56292.22;;;-142.13;35.04
11712;BME280;5912;51.034;6.984;2023-04-26T07:50:32;56260.19;;;-142.13;34.75
11712;BME280;5912;51.034;6.984;2023-04-26T07:52:57;56280.22;;;-142.13;34.97
11712;BME280;5912;51.034;6.984;2023-04-26T07:55:23;56260.19;;;-142.13;34.77
11712;BME280;5912;51.034;6.984;2023-04-26T07:57:48;56294.22;;;-142.13;34.51
11712;BME280;5912;51.034;6.984;2023-04-26T08:00:13;56254.16;;;-142.13;34.57
11712;BME280;5912;51.034;6.984;2023-04-26T08:02:40;56282.22;;;-142.13;34.35
11712;BME280;5912;51.034;6.984;2023-04-26T08:05:06;56256.16;;;-142.13;33.92
11712;BME280;5912;51.034;6.984;2023-04-26T08:07:31;56272.19;;;-142.13;33.73
11712;BME280;5912;51.034;6.984;2023-04-26T08:09:57;56264.19;;;-142.13;33.25
11712;BME280;5912;51.034;6.984;2023-04-26T08:12:22;56262.19;;;-142.13;32.94
11712;BME280;5912;51.034;6.984;2023-04-26T08:14:48;56268.19;;;-142.13;32.98
11712;BME280;5912;51.034;6.984;2023-04-26T08:17:13;56278.19;;;-142.13;33.81
11712;BME280;5912;51.034;6.984;2023-04-26T08:19:38;56252.16;;;-142.13;33.50
11712;BME280;5912;51.034;6.984;2023-04-26T08:22:04;56268.19;;;-142.13;33.41
11712;BME280;5912;51.034;6.984;2023-04-26T08:24:30;56256.16;;;-142.13;33.96
11712;BME280;5912;51.034;6.984;2023-04-26T08:26:55;56248.16;;;-142.13;33.99
11712;BME280;5912;51.034;6.984;2023-04-26T08:29:22;56300.25;;;-142.13;33.79
11712;BME280;5912;51.034;6.984;2023-04-26T08:31:47;56292.22;;;-142.13;34.60
11712;BME280;5912;51.034;6.984;2023-04-26T08:34:13;56326.28;;;-142.13;35.28
11712;BME280;5912;51.034;6.984;2023-04-26T08:36:41;56316.25;;;-142.13;35.44
11712;BME280;5912;51.034;6.984;2023-04-26T08:39:07;56308.25;;;-142.13;35.71
11712;BME280;5912;51.034;6.984;2023-04-26T08:41:35;56326.28;;;-142.13;35.69
11712;BME280;5912;51.034;6.984;2023-04-26T08:44:01;56314.25;;;-142.13;35.31
11712;BME280;5912;51.034;6.984;2023-04-26T08:46:34;56290.22;;;-142.13;34.48
11712;BME280;5912;51.034;6.984;2023-04-26T08:49:21;56272.19;;;-142.13;33.59
11712;BME280;5912;51.034;6.984;2023-04-26T08:51:50;56268.19;;;-142.13;33.22
11712;BME280;5912;51.034;6.984;2023-04-26T08:54:18;56278.19;;;-142.13;33.62
11712;BME280;5912;51.034;6.984;2023-04-26T08:56:45;56284.22;;;-142.13;33.70
11712;BME280;5912;51.034;6.984;2023-04-26T08:59:11;56286.22;;;-142.13;32.94
11712;BME280;5912;51.034;6.984;2023-04-26T09:01:42;56296.22;;;-142.13;33.91
11712;BME280;5912;51.034;6.984;2023-04-26T09:04:08;56308.25;;;-142.13;34.18
11712;BME280;5912;51.034;6.984;2023-04-26T09:06:34;56306.25;;;-142.13;34.39
11712;BME280;5912;51.034;6.984;2023-04-26T09:09:02;56290.22;;;-142.13;33.43
11712;BME280;5912;51.034;6.984;2023-04-26T09:11:51;56284.22;;;-142.13;33.48
11712;BME280;5912;51.034;6.984;2023-04-26T09:14:16;56276.19;;;-142.13;32.80
11712;BME280;5912;51.034;6.984;2023-04-26T09:16:42;56238.13;;;-142.13;32.31
11712;BME280;5912;51.034;6.984;2023-04-26T09:19:07;56214.09;;;-142.13;32.17
11712;BME280;5912;51.034;6.984;2023-04-26T09:21:32;56206.09;;;-142.13;30.50
11712;BME280;5912;51.034;6.984;2023-04-26T09:23:59;56174.03;;;-142.13;30.34
11712;BME280;5912;51.034;6.984;2023-04-26T09:26:29;56198.06;;;-142.13;29.29
11712;BME280;5912;51.034;6.984;2023-04-26T09:29:30;56204.09;;;-142.13;29.88
11712;BME280;5912;51.034;6.984;2023-04-26T09:31:55;56214.09;;;-142.13;29.73
11712;BME280;5912;51.034;6.984;2023-04-26T09:34:22;56230.13;;;-142.13;29.83
11712;BME280;5912;51.034;6.984;2023-04-26T09:36:53;56212.09;;;-142.13;30.22
11712;BME280;5912;51.034;6.984;2023-04-26T09:39:38;56176.03;;;-142.13;29.76
11712;BME280;5912;51.034;6.984;2023-04-26T09:42:05;56172.03;;;-142.13;29.02
11712;BME280;5912;51.034;6.984;2023-04-26T09:44:30;56190.06;;;-142.13;29.33
11712;BME280;5912;51.034;6.984;2023-04-26T09:47:08;56172.03;;;-142.13;29.75
11712;BME280;5912;51.034;6.984;2023-04-26T09:49:47;56196.06;;;-142.13;28.72
11712;BME280;5912;51.034;6.984;2023-04-26T09:52:15;56196.06;;;-142.13;29.37
11712;BME280;5912;51.034;6.984;2023-04-26T09:54:43;56174.03;;;-142.13;29.34
11712;BME280;5912;51.034;6.984;2023-04-26T09:57:13;56228.13;;;-142.13;29.68
11712;BME280;5912;51.034;6.984;2023-04-26T09:59:40;56208.09;;;-142.13;29.47
11712;BME280;5912;51.034;6.984;2023-04-26T10:02:13;56176.03;;;-142.13;29.05
11712;BME280;5912;51.034;6.984;2023-04-26T10:04:38;56176.03;;;-142.13;28.90
11712;BME280;5912;51.034;6.984;2023-04-26T10:07:04;56127.97;;;-142.13;27.97
11712;BME280;5912;51.034;6.984;2023-04-26T10:09:30;56174.03;;;-142.13;27.95
11712;BME280;5912;51.034;6.984;2023-04-26T10:11:57;56162.03;;;-142.13;28.96
11712;BME280;5912;51.034;6.984;2023-04-26T10:14:22;56196.06;;;-142.13;28.83
11712;BME280;5912;51.034;6.984;2023-04-26T10:16:48;56184.06;;;-142.13;28.81
11712;BME280;5912;51.034;6.984;2023-04-26T10:19:14;56224.13;;;-142.13;28.53
11712;BME280;5912;51.034;6.984;2023-04-26T10:21:40;56222.13;;;-142.13;28.84
11712;BME280;5912;51.034;6.984;2023-04-26T10:24:07;56248.16;;;-142.13;28.97
11712;BME280;5912;51.034;6.984;2023-04-26T10:26:50;56228.13;;;-142.13;28.90
11712;BME280;5912;51.034;6.984;2023-04-26T10:29:16;56202.09;;;-142.13;28.54
11712;BME280;5912;51.034;6.984;2023-04-26T10:34:26;56200.09;;;-142.13;28.63
11712;BME280;5912;51.034;6.984;2023-04-26T10:37:06;56204.09;;;-142.13;28.56
11712;BME280;5912;51.034;6.984;2023-04-26T10:39:33;56210.09;;;-142.13;29.33
11712;BME280;5912;51.034;6.984;2023-04-26T10:44:55;56228.13;;;-142.13;29.32
11712;BME280;5912;51.034;6.984;2023-04-26T10:47:32;56186.06;;;-142.13;29.27
11712;BME280;5912;51.034;6.984;2023-04-26T10:50:09;56166.03;;;-142.13;28.24
11712;BME280;5912;51.034;6.984;2023-04-26T10:52:37;56156.00;;;-142.13;27.57
11712;BME280;5912;51.034;6.984;2023-04-26T10:55:03;56131.97;;;-142.13;27.14
11712;BME280;5912;51.034;6.984;2023-04-26T10:57:49;56156.00;;;-142.13;27.68
11712;BME280;5912;51.034;6.984;2023-04-26T11:00:24;56127.97;;;-142.13;25.87
11712;BME280;5912;51.034;6.984;2023-04-26T11:05:52;56103.94;;;-142.13;26.36
11712;BME280;5912;51.034;6.984;2023-04-26T11:08:28;56119.97;;;-142.13;25.51
11712;BME280;5912;51.034;6.984;2023-04-26T11:13:26;56055.84;;;-142.13;24.85
11712;BME280;5912;51.034;6.984;2023-04-26T11:15:52;56037.84;;;-142.13;25.04
11712;BME280;5912;51.034;6.984;2023-04-26T11:18:19;56009.78;;;-142.13;24.79
11712;BME280;5912;51.034;6.984;2023-04-26T11:20:47;55995.78;;;-142.13;24.17
11712;BME280;5912;51.034;6.984;2023-04-26T11:23:12;56031.81;;;-142.13;24.76
11712;BME280;5912;51.034;6.984;2023-04-26T11:25:38;56053.84;;;-142.13;25.03
11712;BME280;5912;51.034;6.984;2023-04-26T11:28:04;56013.78;;;-142.13;24.82
11712;BME280;5912;51.034;6.984;2023-04-26T11:30:31;56053.84;;;-142.13;25.19
11712;BME280;5912;51.034;6.984;2023-04-26T11:32:58;56045.84;;;-142.13;24.90
11712;BME280;5912;51.034;6.984;2023-04-26T11:35:25;56043.84;;;-142.13;24.87
11712;BME280;5912;51.034;6.984;2023-04-26T11:37:51;56039.84;;;-142.13;25.02
11712;BME280;5912;51.034;6.984;2023-04-26T11:40:17;56075.88;;;-142.13;24.46
11712;BME280;5912;51.034;6.984;2023-04-26T11:42:45;56083.91;;;-142.13;25.46
11712;BME280;5912;51.034;6.984;2023-04-26T11:45:10;56095.91;;;-142.13;25.44
11712;BME280;5912;51.034;6.984;2023-04-26T11:47:36;56099.94;;;-142.13;25.81
11712;BME280;5912;51.034;6.984;2023-04-26T11:50:02;56158.00;;;-142.13;25.90
11712;BME280;5912;51.034;6.984;2023-04-26T11:52:28;56113.94;;;-142.13;25.84
11712;BME280;5912;51.034;6.984;2023-04-26T11:55:01;56105.94;;;-142.13;25.62
11712;BME280;5912;51.034;6.984;2023-04-26T11:57:29;56087.91;;;-142.13;24.97
11712;BME280;5912;51.034;6.984;2023-04-26T12:00:07;56039.84;;;-142.13;25.07
11712;BME280;5912;51.034;6.984;2023-04-26T12:02:34;56067.88;;;-142.13;25.16
11712;BME280;5912;51.034;6.984;2023-04-26T12:05:00;56089.91;;;-142.13;25.24
11712;BME280;5912;51.034;6.984;2023-04-26T12:07:25;56115.94;;;-142.13;25.95
11712;BME280;5912;51.034;6.984;2023-04-26T12:09:51;56131.97;;;-142.13;25.87
11712;BME280;5912;51.034;6.984;2023-04-26T12:12:16;56135.97;;;-142.13;26.35
11712;BME280;5912;51.034;6.984;2023-04-26T12:14:42;56164.03;;;-142.13;26.38
11712;BME280;5912;51.034;6.984;2023-04-26T12:17:09;56172.03;;;-142.13;26.71
11712;BME280;5912;51.034;6.984;2023-04-26T12:19:39;56162.03;;;-142.13;26.53
11712;BME280;5912;51.034;6.984;2023-04-26T12:22:06;56180.06;;;-142.13;26.53
11712;BME280;5912;51.034;6.984;2023-04-26T12:24:32;56160.03;;;-142.13;27.49
11712;BME280;5912;51.034;6.984;2023-04-26T12:26:59;56292.22;;;-142.13;27.18
11712;BME280;5912;51.034;6.984;2023-04-26T12:29:27;56146.00;;;-142.13;27.12
11712;BME280;5912;51.034;6.984;2023-04-26T12:31:55;56135.97;;;-142.13;26.52
11712;BME280;5912;51.034;6.984;2023-04-26T12:34:20;56115.94;;;-142.13;26.36
11712;BME280;5912;51.034;6.984;2023-04-26T12:36:45;56158.00;;;-142.13;26.53
11712;BME280;5912;51.034;6.984;2023-04-26T12:39:11;56135.97;;;-142.13;26.94
11712;BME280;5912;51.034;6.984;2023-04-26T12:41:39;56144.00;;;-142.13;26.81
11712;BME280;5912;51.034;6.984;2023-04-26T12:44:06;56146.00;;;-142.13;26.64
11712;BME280;5912;51.034;6.984;2023-04-26T12:46:32;56148.00;;;-142.13;26.61
11712;BME280;5912;51.034;6.984;2023-04-26T12:48:58;56156.00;;;-142.13;26.19
11712;BME280;5912;51.034;6.984;2023-04-26T12:51:23;56135.97;;;-142.13;26.04
11712;BME280;5912;51.034;6.984;2023-04-26T12:53:48;56160.03;;;-142.13;25.88
11712;BME280;5912;51.034;6.984;2023-04-26T12:56:15;56152.00;;;-142.13;26.04
11712;BME280;5912;51.034;6.984;2023-04-26T12:58:40;56166.03;;;-142.13;25.93